createdAt,value
2022-08-21T00:00:52.208Z,97.90
2022-08-21T00:03:21.854Z,97.90
2022-08-21T00:05:52.876Z,98.20
2022-08-21T00:08:22.499Z,98.00
2022-08-21T00:10:50.764Z,98.00
2022-08-21T00:13:20.632Z,98.10
2022-08-21T00:15:49.925Z,98.10
2022-08-21T00:18:18.799Z,98.20
2022-08-21T00:20:48.947Z,98.20
2022-08-21T00:23:17.860Z,98.20
2022-08-21T00:25:46.786Z,98.30
2022-08-21T00:28:15.603Z,98.40
2022-08-21T00:30:44.845Z,98.40
2022-08-21T00:33:13.321Z,98.50
2022-08-21T00:35:44.426Z,98.50
2022-08-21T00:38:14.101Z,98.60
2022-08-21T00:40:46.302Z,98.60
2022-08-21T00:43:17.326Z,98.70
2022-08-21T00:45:45.750Z,98.70
2022-08-21T00:48:13.962Z,98.80
2022-08-21T00:50:46.446Z,98.80
2022-08-21T00:53:16.884Z,98.90
2022-08-21T00:55:45.551Z,99.00
2022-08-21T00:58:17.324Z,99.10
2022-08-21T01:00:49.057Z,99.10
2022-08-21T01:03:19.841Z,99.10
2022-08-21T01:05:52.262Z,99.20
2022-08-21T01:08:22.879Z,99.20
2022-08-21T01:10:54.613Z,99.30
2022-08-21T01:13:29.028Z,99.40
2022-08-21T01:16:01.444Z,99.50
2022-08-21T01:18:29.779Z,99.60
2022-08-21T01:21:12.655Z,99.60
2022-08-21T01:23:44.001Z,99.70
2022-08-21T01:26:13.374Z,99.70
2022-08-21T01:28:46.733Z,99.70
2022-08-21T01:31:17.313Z,99.70
2022-08-21T01:33:53.871Z,99.80
2022-08-21T01:36:24.147Z,99.90
2022-08-21T01:38:52.525Z,99.90
2022-08-21T01:41:20.694Z,99.90
2022-08-21T01:43:48.815Z,99.90
2022-08-21T01:46:17.177Z,99.90
2022-08-21T01:48:45.576Z,99.90
2022-08-21T01:51:13.756Z,99.90
2022-08-21T01:53:43.567Z,99.90
2022-08-21T01:56:14.890Z,99.90
2022-08-21T01:58:44.421Z,99.90
2022-08-21T02:01:12.791Z,99.90
2022-08-21T02:03:42.598Z,99.90
2022-08-21T02:06:15.868Z,99.90
2022-08-21T02:08:45.833Z,99.90
2022-08-21T02:11:13.945Z,99.90
2022-08-21T02:13:42.119Z,99.90
2022-08-21T02:16:10.716Z,99.90
2022-08-21T02:18:39.096Z,99.90
2022-08-21T02:21:08.544Z,99.90
2022-08-21T02:23:37.088Z,99.90
2022-08-21T02:26:09.240Z,99.90
2022-08-21T02:28:37.933Z,99.90
2022-08-21T02:31:07.385Z,99.90
2022-08-21T02:33:35.642Z,99.90
2022-08-21T02:36:05.120Z,99.90
2022-08-21T02:38:38.706Z,99.90
2022-08-21T02:41:10.598Z,99.90
2022-08-21T02:43:38.777Z,99.90
2022-08-21T02:46:08.216Z,99.90
2022-08-21T02:48:37.752Z,99.90
2022-08-21T02:51:08.553Z,99.90
2022-08-21T02:53:37.060Z,99.90
2022-08-21T02:56:07.725Z,99.90
2022-08-21T02:58:39.593Z,99.90
2022-08-21T03:01:10.326Z,99.90
2022-08-21T03:03:40.500Z,99.90
2022-08-21T03:06:10.440Z,99.90
2022-08-21T03:08:38.741Z,99.90
2022-08-21T03:11:07.757Z,99.90
2022-08-21T03:13:39.923Z,99.90
2022-08-21T03:16:10.014Z,99.90
2022-08-21T03:18:38.903Z,99.90
2022-08-21T03:21:08.684Z,99.90
2022-08-21T03:23:36.939Z,99.90
2022-08-21T03:26:06.642Z,99.90
2022-08-21T03:28:36.156Z,99.90
2022-08-21T03:31:06.595Z,99.90
2022-08-21T03:33:34.917Z,99.90
2022-08-21T03:36:05.858Z,99.90
2022-08-21T03:38:35.600Z,99.90
2022-08-21T03:41:03.893Z,99.90
2022-08-21T03:43:32.618Z,99.90
2022-08-21T03:46:02.366Z,99.90
2022-08-21T03:48:31.977Z,99.90
2022-08-21T03:51:00.462Z,99.90
2022-08-21T03:53:29.151Z,99.90
2022-08-21T03:55:57.279Z,99.90
2022-08-21T03:58:28.233Z,99.90
2022-08-21T04:00:59.386Z,99.90
2022-08-21T04:03:28.871Z,99.90
2022-08-21T04:05:58.585Z,99.90
2022-08-21T04:08:26.793Z,99.90
2022-08-21T04:10:57.280Z,99.90
2022-08-21T04:13:25.395Z,99.90
2022-08-21T04:15:53.452Z,99.90
2022-08-21T04:18:21.576Z,99.90
2022-08-21T04:20:53.312Z,99.90
2022-08-21T04:23:25.384Z,99.90
2022-08-21T04:25:54.909Z,99.90
2022-08-21T04:28:23.624Z,99.90
2022-08-21T04:30:57.391Z,99.90
2022-08-21T04:33:26.246Z,99.90
2022-08-21T04:35:54.512Z,99.90
2022-08-21T04:38:24.074Z,99.90
2022-08-21T04:40:53.381Z,99.90
2022-08-21T04:43:22.497Z,99.90
2022-08-21T04:45:52.431Z,99.90
2022-08-21T04:48:22.788Z,99.90
2022-08-21T04:50:54.621Z,99.90
2022-08-21T04:53:28.554Z,99.90
2022-08-21T04:55:58.395Z,99.90
2022-08-21T04:58:28.984Z,99.90
2022-08-21T05:00:59.702Z,99.90
2022-08-21T05:03:28.858Z,99.90
2022-08-21T05:05:57.249Z,99.90
2022-08-21T05:08:29.759Z,99.90
2022-08-21T05:11:00.705Z,99.90
2022-08-21T05:13:29.656Z,99.90
2022-08-21T05:15:58.001Z,99.90
2022-08-21T05:18:26.220Z,99.90
2022-08-21T05:20:54.412Z,99.90
2022-08-21T05:23:22.579Z,99.90
2022-08-21T05:25:52.073Z,99.90
2022-08-21T05:28:20.895Z,99.90
2022-08-21T05:30:49.604Z,99.90
2022-08-21T05:33:17.848Z,99.90
2022-08-21T05:35:46.041Z,99.90
2022-08-21T05:38:16.901Z,99.90
2022-08-21T05:40:47.206Z,99.90
2022-08-21T05:43:17.475Z,99.90
2022-08-21T05:45:45.590Z,99.90
2022-08-21T05:48:17.577Z,99.90
2022-08-21T05:50:47.313Z,99.90
2022-08-21T05:53:16.361Z,99.90
2022-08-21T05:55:46.583Z,99.90
2022-08-21T05:58:18.451Z,99.90
2022-08-21T06:00:48.574Z,99.90
2022-08-21T06:03:19.911Z,99.90
2022-08-21T06:05:48.432Z,99.90
2022-08-21T06:08:17.124Z,99.90
2022-08-21T06:10:45.829Z,99.90
2022-08-21T06:13:14.700Z,99.90
2022-08-21T06:15:44.629Z,99.90
2022-08-21T06:18:13.250Z,99.90
2022-08-21T06:20:41.845Z,99.90
2022-08-21T06:23:10.031Z,99.90
2022-08-21T06:25:38.214Z,99.90
2022-08-21T06:28:08.173Z,99.90
2022-08-21T06:30:37.693Z,99.90
2022-08-21T06:33:08.114Z,99.90
2022-08-21T06:35:37.325Z,99.90
2022-08-21T06:38:10.100Z,99.90
2022-08-21T06:40:43.775Z,99.90
2022-08-21T06:43:18.397Z,99.90
2022-08-21T06:45:47.263Z,99.90
2022-08-21T06:48:19.285Z,99.90
2022-08-21T06:50:48.197Z,99.90
2022-08-21T06:53:19.290Z,99.90
2022-08-21T06:55:48.038Z,99.90
2022-08-21T06:58:17.441Z,99.90
2022-08-21T07:00:49.416Z,99.90
2022-08-21T07:03:25.205Z,99.90
2022-08-21T07:05:53.541Z,99.90
2022-08-21T07:08:22.313Z,99.90
2022-08-21T07:10:51.132Z,99.90
2022-08-21T07:13:19.775Z,99.90
2022-08-21T07:15:47.909Z,99.90
2022-08-21T07:18:16.035Z,99.90
2022-08-21T07:20:45.798Z,99.90
2022-08-21T07:23:20.326Z,99.90
2022-08-21T07:25:48.443Z,99.90
2022-08-21T07:28:16.590Z,99.90
2022-08-21T07:30:45.386Z,99.90
2022-08-21T07:33:13.773Z,99.90
2022-08-21T07:35:41.892Z,99.90
2022-08-21T07:38:11.555Z,99.90
2022-08-21T07:40:39.817Z,99.90
2022-08-21T07:43:08.117Z,99.90
2022-08-21T07:45:36.330Z,99.90
2022-08-21T07:48:05.011Z,99.90
2022-08-21T07:50:33.347Z,99.90
2022-08-21T07:53:01.590Z,99.70
2022-08-21T07:55:31.245Z,99.60
2022-08-21T07:57:59.390Z,99.40
2022-08-21T08:00:29.529Z,99.10
2022-08-21T08:02:58.855Z,98.70
2022-08-21T08:05:30.114Z,98.50
2022-08-21T08:07:58.470Z,98.30
2022-08-21T08:10:27.422Z,98.00
2022-08-21T08:12:57.283Z,97.70
2022-08-21T08:15:29.085Z,97.50
2022-08-21T08:17:58.138Z,97.10
2022-08-21T08:20:28.076Z,96.70
2022-08-21T08:22:56.618Z,96.40
2022-08-21T08:25:26.165Z,96.20
2022-08-21T08:27:54.520Z,96.10
2022-08-21T08:30:24.904Z,96.10
2022-08-21T08:32:53.016Z,95.80
2022-08-21T08:35:24.276Z,95.50
2022-08-21T08:37:53.745Z,95.20
2022-08-21T08:40:30.352Z,95.10
2022-08-21T08:42:58.903Z,95.10
2022-08-21T08:45:31.305Z,95.20
2022-08-21T08:48:04.562Z,95.20
2022-08-21T08:50:42.332Z,95.20
2022-08-21T08:53:15.834Z,95.30
2022-08-21T08:55:46.782Z,95.30
2022-08-21T08:58:21.104Z,95.30
2022-08-21T09:00:53.690Z,95.20
2022-08-21T09:03:24.404Z,95.10
2022-08-21T09:06:01.823Z,95.10
2022-08-21T09:08:50.599Z,95.10
2022-08-21T09:11:28.261Z,95.20
2022-08-21T09:14:03.440Z,95.20
2022-08-21T09:16:42.733Z,95.00
2022-08-21T09:19:31.534Z,94.60
2022-08-21T09:22:09.411Z,94.00
2022-08-21T09:24:51.942Z,94.30
2022-08-21T09:27:22.988Z,94.00
2022-08-21T09:29:55.171Z,94.00
2022-08-21T09:32:37.024Z,93.80
2022-08-21T09:35:14.141Z,93.70
2022-08-21T09:37:52.754Z,93.60
2022-08-21T09:40:32.225Z,93.60
2022-08-21T09:43:03.585Z,93.60
2022-08-21T09:45:34.780Z,93.70
2022-08-21T09:48:21.597Z,93.80
2022-08-21T09:50:52.079Z,93.90
2022-08-21T09:53:23.789Z,93.80
2022-08-21T09:56:14.086Z,93.60
2022-08-21T09:58:45.724Z,93.40
2022-08-21T10:01:18.735Z,93.40
2022-08-21T10:04:05.288Z,93.30
2022-08-21T10:06:35.830Z,92.80
2022-08-21T10:09:16.935Z,92.90
2022-08-21T10:11:54.514Z,93.00
2022-08-21T10:14:37.433Z,93.00
2022-08-21T10:17:19.533Z,92.90
2022-08-21T10:19:55.742Z,92.90
2022-08-21T10:22:35.834Z,92.70
2022-08-21T10:25:12.438Z,92.70
2022-08-21T10:27:49.379Z,92.70
2022-08-21T10:30:22.742Z,92.90
2022-08-21T10:33:09.311Z,92.50
2022-08-21T10:35:46.556Z,92.30
2022-08-21T10:39:07.358Z,92.30
2022-08-21T10:41:59.867Z,92.20
2022-08-21T10:44:35.690Z,92.30
2022-08-21T10:47:11.426Z,92.30
2022-08-21T10:49:49.974Z,92.00
2022-08-21T10:52:44.447Z,91.80
2022-08-21T10:55:17.815Z,91.70
2022-08-21T10:57:51.426Z,91.50
2022-08-21T11:00:23.369Z,91.60
2022-08-21T11:02:57.762Z,91.60
2022-08-21T11:05:33.042Z,91.70
2022-08-21T11:08:08.199Z,91.50
2022-08-21T11:10:51.295Z,91.30
2022-08-21T11:13:38.100Z,91.40
2022-08-21T11:16:12.669Z,91.50
2022-08-21T11:18:45.867Z,91.50
2022-08-21T11:21:30.417Z,91.50
2022-08-21T11:24:07.540Z,91.20
2022-08-21T11:26:45.269Z,90.90
2022-08-21T11:29:19.788Z,90.80
2022-08-21T11:32:01.593Z,90.80
2022-08-21T11:34:44.992Z,90.90
2022-08-21T11:37:23.092Z,90.80
2022-08-21T11:40:02.426Z,90.30
2022-08-21T11:42:40.645Z,90.00
2022-08-21T11:45:20.613Z,89.90
2022-08-21T11:48:00.607Z,90.00
2022-08-21T11:50:36.198Z,90.00
2022-08-21T11:53:11.271Z,89.70
2022-08-21T11:55:57.990Z,89.50
2022-08-21T11:58:29.350Z,89.50
2022-08-21T12:01:00.198Z,89.40
2022-08-21T12:03:31.710Z,89.50
2022-08-21T12:06:02.128Z,89.40
2022-08-21T12:08:33.612Z,89.30
2022-08-21T12:11:06.868Z,89.40
2022-08-21T12:13:41.966Z,89.40
2022-08-21T12:16:15.729Z,89.60
2022-08-21T12:18:45.073Z,89.70
2022-08-21T12:21:23.353Z,89.80
2022-08-21T12:24:04.873Z,89.60
2022-08-21T12:26:37.768Z,89.40
2022-08-21T12:29:16.126Z,89.30
2022-08-21T12:31:57.832Z,89.40
2022-08-21T12:34:32.738Z,89.00
2022-08-21T12:37:04.601Z,88.80
2022-08-21T12:39:34.699Z,88.90
2022-08-21T12:42:14.437Z,88.80
2022-08-21T12:44:46.430Z,88.60
2022-08-21T12:47:19.645Z,88.40
2022-08-21T12:49:56.697Z,88.20
2022-08-21T12:52:29.807Z,89.00
2022-08-21T12:54:58.066Z,88.00
2022-08-21T12:57:30.751Z,87.50
2022-08-21T13:00:01.640Z,87.60
2022-08-21T13:02:32.977Z,87.30
2022-08-21T13:05:05.418Z,87.30
2022-08-21T13:07:36.807Z,87.80
2022-08-21T13:10:16.211Z,87.40
2022-08-21T13:12:46.331Z,86.90
2022-08-21T13:15:15.766Z,86.70
2022-08-21T13:17:48.825Z,86.70
2022-08-21T13:20:24.375Z,86.70
2022-08-21T13:22:53.189Z,86.00
2022-08-21T13:25:23.997Z,85.80
2022-08-21T13:28:03.251Z,85.60
2022-08-21T13:30:32.299Z,85.70
2022-08-21T13:33:02.421Z,85.20
2022-08-21T13:35:37.008Z,84.80
2022-08-21T13:38:07.308Z,84.70
2022-08-21T13:40:44.378Z,84.70
2022-08-21T13:43:19.978Z,84.00
2022-08-21T13:45:52.153Z,83.80
2022-08-21T13:48:21.423Z,83.50
2022-08-21T13:50:49.839Z,83.10
2022-08-21T13:53:25.928Z,82.90
2022-08-21T13:55:58.639Z,82.60
2022-08-21T13:58:32.776Z,83.00
2022-08-21T14:01:06.758Z,83.80
2022-08-21T14:03:40.137Z,83.00
2022-08-21T14:06:14.665Z,82.60
2022-08-21T14:08:43.966Z,82.50
2022-08-21T14:11:14.209Z,82.40
2022-08-21T14:13:46.796Z,81.90
2022-08-21T14:16:19.798Z,82.00
2022-08-21T14:18:54.360Z,82.20
2022-08-21T14:21:30.935Z,82.00
2022-08-21T14:24:10.874Z,81.30
2022-08-21T14:26:46.878Z,81.90
2022-08-21T14:29:18.872Z,81.30
2022-08-21T14:31:53.089Z,81.20
2022-08-21T14:34:21.780Z,81.10
2022-08-21T14:36:51.585Z,81.20
2022-08-21T14:39:20.168Z,81.20
2022-08-21T14:41:49.424Z,81.20
2022-08-21T14:44:20.985Z,81.10
2022-08-21T14:46:55.395Z,80.70
2022-08-21T14:49:28.710Z,80.60
2022-08-21T14:51:59.087Z,80.60
2022-08-21T14:54:30.972Z,80.20
2022-08-21T14:57:02.569Z,80.10
2022-08-21T14:59:33.971Z,80.10
2022-08-21T15:02:05.024Z,80.00
2022-08-21T15:04:33.584Z,80.10
2022-08-21T15:07:01.697Z,80.50
2022-08-21T15:09:29.892Z,80.70
2022-08-21T15:12:00.768Z,80.80
2022-08-21T15:14:32.708Z,80.70
2022-08-21T15:17:01.079Z,80.50
2022-08-21T15:19:30.565Z,80.20
2022-08-21T15:21:59.414Z,80.10
2022-08-21T15:24:28.069Z,80.10
2022-08-21T15:26:57.990Z,80.20
2022-08-21T15:29:28.976Z,80.10
2022-08-21T15:32:17.865Z,80.10
2022-08-21T15:34:46.174Z,80.10
2022-08-21T15:37:14.213Z,80.10
2022-08-21T15:39:42.395Z,80.10
2022-08-21T15:42:12.340Z,80.00
2022-08-21T15:44:41.485Z,79.80
2022-08-21T15:47:14.286Z,79.50
2022-08-21T15:49:45.895Z,79.40
2022-08-21T15:52:14.485Z,79.40
2022-08-21T15:54:42.590Z,79.20
2022-08-21T15:57:13.599Z,78.70
2022-08-21T15:59:43.410Z,78.30
2022-08-21T16:02:16.976Z,78.00
2022-08-21T16:04:45.155Z,77.70
2022-08-21T16:07:13.639Z,77.70
2022-08-21T16:09:41.769Z,77.70
2022-08-21T16:12:11.940Z,77.50
2022-08-21T16:14:40.151Z,77.40
2022-08-21T16:17:08.949Z,77.50
2022-08-21T16:19:39.110Z,77.50
2022-08-21T16:22:07.242Z,77.60
2022-08-21T16:24:36.488Z,77.50
2022-08-21T16:27:08.116Z,77.60
2022-08-21T16:29:38.308Z,77.40
2022-08-21T16:32:08.934Z,77.40
2022-08-21T16:34:39.805Z,77.60
2022-08-21T16:37:07.943Z,77.80
2022-08-21T16:39:36.933Z,77.70
2022-08-21T16:42:06.251Z,77.60
2022-08-21T16:44:37.341Z,77.80
2022-08-21T16:47:05.984Z,77.70
2022-08-21T16:49:34.043Z,77.50
2022-08-21T16:52:04.039Z,77.60
2022-08-21T16:54:32.112Z,77.60
2022-08-21T16:57:00.982Z,77.80
2022-08-21T16:59:29.136Z,78.00
2022-08-21T17:01:57.532Z,78.00
2022-08-21T17:04:25.939Z,78.20
2022-08-21T17:06:54.026Z,78.70
2022-08-21T17:09:23.533Z,79.70
2022-08-21T17:11:51.611Z,81.20
2022-08-21T17:14:24.490Z,82.80
2022-08-21T17:16:56.418Z,84.10
2022-08-21T17:19:25.335Z,85.60
2022-08-21T17:21:53.377Z,87.00
2022-08-21T17:24:22.935Z,87.80
2022-08-21T17:26:51.649Z,88.90
2022-08-21T17:29:25.625Z,89.80
2022-08-21T17:31:53.915Z,90.30
2022-08-21T17:34:22.565Z,90.50
2022-08-21T17:36:50.643Z,90.70
2022-08-21T17:39:22.478Z,91.00
2022-08-21T17:41:58.110Z,91.10
2022-08-21T17:44:26.940Z,91.40
2022-08-21T17:46:55.197Z,91.50
2022-08-21T17:49:23.359Z,91.70
2022-08-21T17:51:51.611Z,91.80
2022-08-21T17:54:19.744Z,91.90
2022-08-21T17:56:48.212Z,92.40
2022-08-21T17:59:17.849Z,92.20
2022-08-21T18:01:48.155Z,92.30
2022-08-21T18:04:16.616Z,92.50
2022-08-21T18:06:45.835Z,92.70
2022-08-21T18:09:14.689Z,92.80
2022-08-21T18:11:44.110Z,92.90
2022-08-21T18:14:13.292Z,93.10
2022-08-21T18:16:43.402Z,93.20
2022-08-21T18:19:15.935Z,93.30
2022-08-21T18:21:44.581Z,93.50
2022-08-21T18:24:12.797Z,93.50
2022-08-21T18:26:42.915Z,93.60
2022-08-21T18:29:14.076Z,93.80
2022-08-21T18:31:46.356Z,94.00
2022-08-21T18:34:23.348Z,94.60
2022-08-21T18:36:52.979Z,94.40
2022-08-21T18:39:36.353Z,94.40
2022-08-21T18:42:09.983Z,94.50
2022-08-21T18:44:38.806Z,94.50
2022-08-21T18:47:12.267Z,94.50
2022-08-21T18:49:41.099Z,94.60
2022-08-21T18:52:10.190Z,94.70
2022-08-21T18:54:46.025Z,94.70
2022-08-21T18:57:19.476Z,94.80
2022-08-21T18:59:49.468Z,94.90
2022-08-21T19:02:19.200Z,94.90
2022-08-21T19:04:48.194Z,95.00
2022-08-21T19:07:17.045Z,95.00
2022-08-21T19:10:01.926Z,95.30
2022-08-21T19:12:34.798Z,95.10
2022-08-21T19:15:03.322Z,95.20
2022-08-21T19:17:33.340Z,95.30
2022-08-21T19:20:07.154Z,95.40
2022-08-21T19:22:35.270Z,95.70
2022-08-21T19:25:05.382Z,95.50
2022-08-21T19:27:35.402Z,95.50
2022-08-21T19:30:05.433Z,95.60
2022-08-21T19:32:35.528Z,95.60
2022-08-21T19:35:04.681Z,95.70
2022-08-21T19:37:32.792Z,95.70
2022-08-21T19:40:04.073Z,95.60
2022-08-21T19:42:32.465Z,95.70
2022-08-21T19:45:00.678Z,95.70
2022-08-21T19:47:31.304Z,95.70
2022-08-21T19:50:17.654Z,95.80
2022-08-21T19:52:51.558Z,95.80
2022-08-21T19:55:20.080Z,95.80
2022-08-21T19:57:51.686Z,95.90
2022-08-21T20:00:19.845Z,95.90
2022-08-21T20:02:48.429Z,95.90
2022-08-21T20:05:18.399Z,95.90
2022-08-21T20:07:46.978Z,95.90
2022-08-21T20:10:15.499Z,95.90
2022-08-21T20:12:45.720Z,95.90
2022-08-21T20:15:24.185Z,96.00
2022-08-21T20:17:53.356Z,96.00
2022-08-21T20:20:22.847Z,96.00
2022-08-21T20:22:50.921Z,96.10
2022-08-21T20:25:21.205Z,96.10
2022-08-21T20:27:49.670Z,96.10
2022-08-21T20:30:22.711Z,96.20
2022-08-21T20:32:51.341Z,96.20
2022-08-21T20:35:19.833Z,96.20
2022-08-21T20:37:58.513Z,96.20
2022-08-21T20:40:32.893Z,96.30
2022-08-21T20:43:02.507Z,96.30
2022-08-21T20:45:34.394Z,96.30
2022-08-21T20:48:06.025Z,96.30
2022-08-21T20:50:38.441Z,96.30
2022-08-21T20:53:28.054Z,96.60
2022-08-21T20:56:15.851Z,96.40
2022-08-21T20:58:49.797Z,96.40
2022-08-21T21:01:19.235Z,96.50
2022-08-21T21:03:52.612Z,96.50
2022-08-21T21:06:27.274Z,96.50
2022-08-21T21:09:02.389Z,96.60
2022-08-21T21:11:35.066Z,96.80
2022-08-21T21:14:11.471Z,96.60
2022-08-21T21:16:50.752Z,96.70
2022-08-21T21:19:27.712Z,96.70
2022-08-21T21:22:01.629Z,96.80
2022-08-21T21:24:37.707Z,96.80
2022-08-21T21:27:12.281Z,96.80
2022-08-21T21:29:44.159Z,96.90
2022-08-21T21:32:17.869Z,97.00
2022-08-21T21:34:51.063Z,97.00
2022-08-21T21:37:26.050Z,97.10
2022-08-21T21:40:04.568Z,97.20
2022-08-21T21:42:43.175Z,97.20
2022-08-21T21:45:21.825Z,97.30
2022-08-21T21:48:03.433Z,97.40
2022-08-21T21:50:46.293Z,97.50
2022-08-21T21:53:27.380Z,97.60
2022-08-21T21:56:14.106Z,97.60
2022-08-21T21:58:57.977Z,97.70
2022-08-21T22:01:33.302Z,97.80
2022-08-21T22:04:06.110Z,97.90
2022-08-21T22:06:43.316Z,98.00
2022-08-21T22:09:19.527Z,98.20
2022-08-21T22:12:07.345Z,98.20
2022-08-21T22:14:39.697Z,98.40
2022-08-21T22:17:14.691Z,98.40
2022-08-21T22:19:44.023Z,98.50
2022-08-21T22:22:16.713Z,98.60
2022-08-21T22:24:48.568Z,98.70
2022-08-21T22:27:23.039Z,98.70
2022-08-21T22:29:57.461Z,98.80
2022-08-21T22:32:28.516Z,98.90
2022-08-21T22:35:12.195Z,98.90
2022-08-21T22:37:44.810Z,99.00
2022-08-21T22:40:23.932Z,99.00
2022-08-21T22:43:07.202Z,99.10
2022-08-21T22:45:54.002Z,99.10
2022-08-21T22:48:24.469Z,99.20
2022-08-21T22:50:58.260Z,99.30
2022-08-21T22:53:29.813Z,99.40
2022-08-21T22:56:00.369Z,99.50
2022-08-21T22:58:32.944Z,99.50
2022-08-21T23:01:05.217Z,99.60
2022-08-21T23:03:42.478Z,99.60
2022-08-21T23:06:26.413Z,99.70
2022-08-21T23:08:55.371Z,99.80
2022-08-21T23:11:30.393Z,99.90
2022-08-21T23:14:01.592Z,99.90
2022-08-21T23:16:47.253Z,99.90
2022-08-21T23:19:23.326Z,99.90
2022-08-21T23:21:55.511Z,99.90
2022-08-21T23:27:52.369Z,99.90
2022-08-21T23:30:27.384Z,99.90
2022-08-21T23:33:09.335Z,99.90
2022-08-21T23:36:04.221Z,99.90
2022-08-21T23:38:51.308Z,99.90
2022-08-21T23:41:34.125Z,99.90
2022-08-21T23:44:12.239Z,99.90
2022-08-21T23:46:53.593Z,99.90
2022-08-21T23:49:37.163Z,99.90
2022-08-21T23:52:18.931Z,99.90
2022-08-21T23:55:04.556Z,99.90
2022-08-21T23:57:48.198Z,99.90
